Time,TemperatureF,DewpointF,PressureIn,WindDirection,WindDirectionDegrees,WindSpeedMPH,WindSpeedGustMPH,Humidity,HourlyPrecipIn,Conditions,Clouds,dailyrainin,SolarRadiationWatts/m^2,SoftwareType,DateUTC
2013-10-10 00:00:00,45.0,43.7,29.96,N/A,-737280,0.0,-999.0,95,0.00,,,0.00,0,Wunderground v.1.15,2013-10-10 07:00:00,
2013-10-10 00:05:00,45.0,43.7,29.96,N/A,-737280,0.0,-999.0,95,0.00,,,0.00,0,Wunderground v.1.15,2013-10-10 07:05:00,
2013-10-10 00:06:00,45.1,44.0,29.95,NW,317,0.0,0.0,95,0.00,,,0.00,0,weatherlink.com 1.10,2013-10-10 07:06:00,
2013-10-10 00:10:00,45.0,43.7,29.96,N/A,-737280,0.0,-999.0,95,0.00,,,0.00,0,Wunderground v.1.15,2013-10-10 07:10:00,
2013-10-10 00:15:00,45.0,43.7,29.96,N/A,-737280,0.0,-999.0,95,0.00,,,0.00,0,Wunderground v.1.15,2013-10-10 07:15:00,
2013-10-10 00:20:00,45.0,43.7,29.96,N/A,-737280,0.0,-999.0,95,0.00,,,0.00,0,Wunderground v.1.15,2013-10-10 07:20:00,
2013-10-10 00:21:00,45.0,44.0,29.96,NW,317,0.0,0.0,95,0.00,,,0.00,0,weatherlink.com 1.10,2013-10-10 07:21:00,
2013-10-10 00:25:00,45.1,43.8,29.96,N/A,-737280,0.0,-999.0,95,0.00,,,0.00,0,Wunderground v.1.15,2013-10-10 07:25:00,
2013-10-10 00:30:00,45.1,43.8,29.96,N/A,-737280,0.0,-999.0,95,0.00,,,0.00,0,Wunderground v.1.15,2013-10-10 07:30:00,
2013-10-10 00:35:00,45.1,43.8,29.96,N/A,-737280,0.0,-999.0,95,0.00,,,0.00,0,Wunderground v.1.15,2013-10-10 07:35:00,
2013-10-10 00:36:00,45.3,44.0,29.96,NW,317,0.0,0.0,95,0.00,,,0.00,0,weatherlink.com 1.10,2013-10-10 07:36:00,
2013-10-10 00:40:00,45.2,43.9,29.96,NW,315,0.0,-999.0,95,0.00,,,0.00,0,Wunderground v.1.15,2013-10-10 07:40:00,
2013-10-10 00:45:00,45.2,43.9,29.96,NW,315,0.0,-999.0,95,0.00,,,0.00,0,Wunderground v.1.15,2013-10-10 07:45:00,
2013-10-10 00:50:00,45.2,43.9,29.96,NW,315,0.0,-999.0,95,0.00,,,0.00,0,Wunderground v.1.15,2013-10-10 07:50:00,
2013-10-10 00:51:00,45.3,44.0,29.96,NW,317,0.0,1.0,95,0.00,,,0.00,0,weatherlink.com 1.10,2013-10-10 07:51:00,
2013-10-10 00:55:00,45.2,43.9,29.96,NW,315,0.0,-999.0,95,0.00,,,0.00,0,Wunderground v.1.15,2013-10-10 07:55:00,
2013-10-10 01:00:00,45.2,43.9,29.96,NW,315,0.0,-999.0,95,0.00,,,0.00,0,Wunderground v.1.15,2013-10-10 08:00:00,
2013-10-10 01:05:00,45.2,43.9,29.96,NW,315,0.0,-999.0,95,0.00,,,0.00,0,Wunderground v.1.15,2013-10-10 08:05:00,
2013-10-10 01:06:00,45.2,44.0,29.96,NW,317,0.0,0.0,95,0.00,,,0.00,0,weatherlink.com 1.10,2013-10-10 08:06:00,
2013-10-10 01:10:00,45.2,43.9,29.96,N/A,-737280,0.0,-999.0,95,0.00,,,0.00,0,Wunderground v.1.15,2013-10-10 08:10:00,
2013-10-10 01:15:00,45.2,43.9,29.96,N/A,-737280,0.0,-999.0,95,0.00,,,0.00,0,Wunderground v.1.15,2013-10-10 08:15:00,
2013-10-10 01:20:00,45.2,43.9,29.96,N/A,-737280,0.0,-999.0,95,0.00,,,0.00,0,Wunderground v.1.15,2013-10-10 08:20:00,
2013-10-10 01:21:00,45.1,44.0,29.96,NW,317,0.0,0.0,95,0.00,,,0.00,0,weatherlink.com 1.10,2013-10-10 08:21:00,
2013-10-10 01:25:00,45.1,43.8,29.96,N/A,-737280,0.0,-999.0,95,0.00,,,0.00,0,Wunderground v.1.15,2013-10-10 08:25:00,
2013-10-10 01:30:00,45.1,43.8,29.96,N/A,-737280,0.0,-999.0,95,0.00,,,0.00,0,Wunderground v.1.15,2013-10-10 08:30:00,
2013-10-10 01:35:00,45.1,43.8,29.96,N/A,-737280,0.0,-999.0,95,0.00,,,0.00,0,Wunderground v.1.15,2013-10-10 08:35:00,
2013-10-10 01:36:00,45.2,44.0,29.96,NW,317,0.0,0.0,95,0.00,,,0.00,0,weatherlink.com 1.10,2013-10-10 08:36:00,
2013-10-10 01:40:00,45.3,44.0,29.97,N/A,-737280,0.0,-999.0,95,0.00,,,0.00,0,Wunderground v.1.15,2013-10-10 08:40:00,
2013-10-10 01:45:00,45.3,44.0,29.97,N/A,-737280,0.0,-999.0,95,0.00,,,0.00,0,Wunderground v.1.15,2013-10-10 08:45:00,
2013-10-10 01:50:00,45.3,44.0,29.97,N/A,-737280,0.0,-999.0,95,0.00,,,0.00,0,Wunderground v.1.15,2013-10-10 08:50:00,
2013-10-10 01:51:00,45.3,44.0,29.97,NW,317,0.0,0.0,95,0.00,,,0.00,0,weatherlink.com 1.10,2013-10-10 08:51:00,
2013-10-10 01:55:00,45.4,44.1,29.97,N/A,-737280,0.0,-999.0,95,0.00,,,0.00,0,Wunderground v.1.15,2013-10-10 08:55:00,
2013-10-10 02:00:00,45.4,44.1,29.97,N/A,-737280,0.0,-999.0,95,0.00,,,0.00,0,Wunderground v.1.15,2013-10-10 09:00:00,
2013-10-10 02:05:00,45.4,44.1,29.97,N/A,-737280,0.0,-999.0,95,0.00,,,0.00,0,Wunderground v.1.15,2013-10-10 09:05:00,
2013-10-10 02:06:00,45.4,44.0,29.97,NW,317,0.0,0.0,95,0.00,,,0.00,0,weatherlink.com 1.10,2013-10-10 09:06:00,
2013-10-10 02:10:00,45.4,44.1,29.96,N/A,-737280,0.0,-999.0,95,0.00,,,0.00,0,Wunderground v.1.15,2013-10-10 09:10:00,
2013-10-10 02:15:00,45.4,44.1,29.96,N/A,-737280,0.0,-999.0,95,0.00,,,0.00,0,Wunderground v.1.15,2013-10-10 09:15:00,
2013-10-10 02:20:00,45.4,44.1,29.96,N/A,-737280,0.0,-999.0,95,0.00,,,0.00,0,Wunderground v.1.15,2013-10-10 09:20:00,
2013-10-10 02:21:00,45.3,44.0,29.96,NW,317,0.0,0.0,95,0.00,,,0.00,0,weatherlink.com 1.10,2013-10-10 09:21:00,
2013-10-10 02:25:00,45.2,43.9,29.94,N/A,-737280,0.0,-999.0,95,0.00,,,0.00,0,Wunderground v.1.15,2013-10-10 09:25:00,
2013-10-10 02:30:00,45.2,43.9,29.94,N/A,-737280,0.0,-999.0,95,0.00,,,0.00,0,Wunderground v.1.15,2013-10-10 09:30:00,
2013-10-10 02:35:00,45.2,43.9,29.94,N/A,-737280,0.0,-999.0,95,0.00,,,0.00,0,Wunderground v.1.15,2013-10-10 09:35:00,
2013-10-10 02:36:00,45.1,44.0,29.95,NW,317,0.0,0.0,95,0.00,,,0.00,0,weatherlink.com 1.10,2013-10-10 09:36:00,
2013-10-10 02:40:00,45.0,43.7,29.94,N/A,-737280,0.0,-999.0,95,0.00,,,0.00,0,Wunderground v.1.15,2013-10-10 09:40:00,
2013-10-10 02:45:00,45.0,43.7,29.94,N/A,-737280,0.0,-999.0,95,0.00,,,0.00,0,Wunderground v.1.15,2013-10-10 09:45:00,
2013-10-10 02:50:00,45.0,43.7,29.94,N/A,-737280,0.0,-999.0,95,0.00,,,0.00,0,Wunderground v.1.15,2013-10-10 09:50:00,
2013-10-10 02:51:00,44.6,43.0,29.94,NW,317,0.0,0.0,95,0.00,,,0.00,0,weatherlink.com 1.10,2013-10-10 09:51:00,
2013-10-10 02:55:00,44.4,43.1,29.93,N/A,-737280,0.0,-999.0,95,0.00,,,0.00,0,Wunderground v.1.15,2013-10-10 09:55:00,
2013-10-10 03:00:00,44.4,43.1,29.93,N/A,-737280,0.0,-999.0,95,0.00,,,0.00,0,Wunderground v.1.15,2013-10-10 10:00:00,
2013-10-10 03:05:00,44.4,43.1,29.93,N/A,-737280,0.0,-999.0,95,0.00,,,0.00,0,Wunderground v.1.15,2013-10-10 10:05:00,
2013-10-10 03:06:00,44.0,43.0,29.93,NW,317,0.0,0.0,95,0.00,,,0.00,0,weatherlink.com 1.10,2013-10-10 10:06:00,
2013-10-10 03:10:00,43.9,42.6,29.93,N/A,-737280,0.0,-999.0,95,0.00,,,0.00,0,Wunderground v.1.15,2013-10-10 10:10:00,
2013-10-10 03:15:00,43.9,42.6,29.93,N/A,-737280,0.0,-999.0,95,0.00,,,0.00,0,Wunderground v.1.15,2013-10-10 10:15:00,
2013-10-10 03:20:00,43.9,42.6,29.93,N/A,-737280,0.0,-999.0,95,0.00,,,0.00,0,Wunderground v.1.15,2013-10-10 10:20:00,
2013-10-10 03:21:00,43.8,43.0,29.93,NW,317,0.0,0.0,95,0.00,,,0.00,0,weatherlink.com 1.10,2013-10-10 10:21:00,
2013-10-10 03:25:00,43.7,42.4,29.93,N/A,-737280,0.0,-999.0,95,0.00,,,0.00,0,Wunderground v.1.15,2013-10-10 10:25:00,
2013-10-10 03:30:00,43.7,42.4,29.93,N/A,-737280,0.0,-999.0,95,0.00,,,0.00,0,Wunderground v.1.15,2013-10-10 10:30:00,
2013-10-10 03:35:00,43.7,42.4,29.93,N/A,-737280,0.0,-999.0,95,0.00,,,0.00,0,Wunderground v.1.15,2013-10-10 10:35:00,
2013-10-10 03:36:00,43.6,42.0,29.93,NW,317,0.0,0.0,95,0.00,,,0.00,0,weatherlink.com 1.10,2013-10-10 10:36:00,
2013-10-10 03:40:00,43.6,42.3,29.93,N/A,-737280,0.0,-999.0,95,0.00,,,0.00,0,Wunderground v.1.15,2013-10-10 10:40:00,
2013-10-10 03:45:00,43.6,42.3,29.93,N/A,-737280,0.0,-999.0,95,0.00,,,0.00,0,Wunderground v.1.15,2013-10-10 10:45:00,
2013-10-10 03:50:00,43.6,42.3,29.93,N/A,-737280,0.0,-999.0,95,0.00,,,0.00,0,Wunderground v.1.15,2013-10-10 10:50:00,
2013-10-10 03:51:00,43.7,43.0,29.93,NW,317,0.0,0.0,96,0.00,,,0.00,0,weatherlink.com 1.10,2013-10-10 10:51:00,
2013-10-10 03:55:00,43.6,42.3,29.93,N/A,-737280,0.0,-999.0,95,0.00,,,0.00,0,Wunderground v.1.15,2013-10-10 10:55:00,
2013-10-10 04:00:00,43.6,42.3,29.93,N/A,-737280,0.0,-999.0,95,0.00,,,0.00,0,Wunderground v.1.15,2013-10-10 11:00:00,
2013-10-10 04:05:00,43.6,42.3,29.93,N/A,-737280,0.0,-999.0,95,0.00,,,0.00,0,Wunderground v.1.15,2013-10-10 11:05:00,
2013-10-10 04:06:00,43.6,42.0,29.93,NW,317,0.0,0.0,95,0.00,,,0.00,0,weatherlink.com 1.10,2013-10-10 11:06:00,
2013-10-10 04:10:00,43.5,42.2,29.93,N/A,-737280,0.0,-999.0,95,0.00,,,0.00,0,Wunderground v.1.15,2013-10-10 11:10:00,
2013-10-10 04:15:00,43.5,42.2,29.93,N/A,-737280,0.0,-999.0,95,0.00,,,0.00,0,Wunderground v.1.15,2013-10-10 11:15:00,
2013-10-10 04:20:00,43.5,42.2,29.93,N/A,-737280,0.0,-999.0,95,0.00,,,0.00,0,Wunderground v.1.15,2013-10-10 11:20:00,
2013-10-10 04:21:00,43.5,43.0,29.93,NW,317,0.0,0.0,96,0.00,,,0.00,0,weatherlink.com 1.10,2013-10-10 11:21:00,
2013-10-10 04:25:00,43.6,42.5,29.93,N/A,-737280,0.0,-999.0,96,0.00,,,0.00,0,Wunderground v.1.15,2013-10-10 11:25:00,
2013-10-10 04:30:00,43.6,42.5,29.93,N/A,-737280,0.0,-999.0,96,0.00,,,0.00,0,Wunderground v.1.15,2013-10-10 11:30:00,
2013-10-10 04:35:00,43.6,42.5,29.93,N/A,-737280,0.0,-999.0,96,0.00,,,0.00,0,Wunderground v.1.15,2013-10-10 11:35:00,
2013-10-10 04:36:00,43.7,43.0,29.93,NW,317,0.0,0.0,96,0.00,,,0.00,0,weatherlink.com 1.10,2013-10-10 11:36:00,
2013-10-10 04:40:00,43.7,42.6,29.93,N/A,-737280,0.0,-999.0,96,0.00,,,0.00,0,Wunderground v.1.15,2013-10-10 11:40:00,
2013-10-10 04:45:00,43.7,42.6,29.93,N/A,-737280,0.0,-999.0,96,0.00,,,0.00,0,Wunderground v.1.15,2013-10-10 11:45:00,
2013-10-10 04:50:00,43.7,42.6,29.93,N/A,-737280,0.0,-999.0,96,0.00,,,0.00,0,Wunderground v.1.15,2013-10-10 11:50:00,
2013-10-10 04:51:00,43.7,43.0,29.93,NW,317,0.0,0.0,96,0.00,,,0.00,0,weatherlink.com 1.10,2013-10-10 11:51:00,
2013-10-10 04:55:00,43.7,42.6,29.93,N/A,-737280,0.0,-999.0,96,0.00,,,0.00,0,Wunderground v.1.15,2013-10-10 11:55:00,
2013-10-10 05:00:00,43.7,42.6,29.93,N/A,-737280,0.0,-999.0,96,0.00,,,0.00,0,Wunderground v.1.15,2013-10-10 12:00:00,
2013-10-10 05:05:00,43.7,42.6,29.93,N/A,-737280,0.0,-999.0,96,0.00,,,0.00,0,Wunderground v.1.15,2013-10-10 12:05:00,
2013-10-10 05:06:00,43.8,43.0,29.93,NW,317,0.0,0.0,96,0.00,,,0.00,0,weatherlink.com 1.10,2013-10-10 12:06:00,
2013-10-10 05:10:00,43.8,42.7,29.93,N/A,-737280,0.0,-999.0,96,0.00,,,0.00,0,Wunderground v.1.15,2013-10-10 12:10:00,
2013-10-10 05:15:00,43.8,42.7,29.93,N/A,-737280,0.0,-999.0,96,0.00,,,0.00,0,Wunderground v.1.15,2013-10-10 12:15:00,
2013-10-10 05:20:00,43.8,42.7,29.93,N/A,-737280,0.0,-999.0,96,0.00,,,0.00,0,Wunderground v.1.15,2013-10-10 12:20:00,
2013-10-10 05:21:00,43.6,43.0,29.93,NW,317,0.0,0.0,96,0.00,,,0.00,0,weatherlink.com 1.10,2013-10-10 12:21:00,
2013-10-10 05:25:00,43.6,42.5,29.94,N/A,-737280,0.0,-999.0,96,0.00,,,0.00,0,Wunderground v.1.15,2013-10-10 12:25:00,
2013-10-10 05:30:00,43.6,42.5,29.94,N/A,-737280,0.0,-999.0,96,0.00,,,0.00,0,Wunderground v.1.15,2013-10-10 12:30:00,
2013-10-10 05:35:00,43.6,42.5,29.94,N/A,-737280,0.0,-999.0,96,0.00,,,0.00,0,Wunderground v.1.15,2013-10-10 12:35:00,
2013-10-10 05:36:00,43.5,43.0,29.94,NW,317,0.0,0.0,96,0.00,,,0.00,0,weatherlink.com 1.10,2013-10-10 12:36:00,
2013-10-10 05:40:00,43.5,42.4,29.94,N/A,-737280,0.0,-999.0,96,0.00,,,0.00,0,Wunderground v.1.15,2013-10-10 12:40:00,
2013-10-10 05:45:00,43.5,42.4,29.94,N/A,-737280,0.0,-999.0,96,0.00,,,0.00,0,Wunderground v.1.15,2013-10-10 12:45:00,
2013-10-10 05:50:00,43.5,42.4,29.94,N/A,-737280,0.0,-999.0,96,0.00,,,0.00,0,Wunderground v.1.15,2013-10-10 12:50:00,
2013-10-10 05:51:00,43.5,43.0,29.94,NW,317,0.0,0.0,96,0.00,,,0.00,0,weatherlink.com 1.10,2013-10-10 12:51:00,
2013-10-10 05:55:00,43.5,42.4,29.94,N/A,-737280,0.0,-999.0,96,0.00,,,0.00,0,Wunderground v.1.15,2013-10-10 12:55:00,
2013-10-10 06:00:00,43.5,42.4,29.94,N/A,-737280,0.0,-999.0,96,0.00,,,0.00,0,Wunderground v.1.15,2013-10-10 13:00:00,
2013-10-10 06:05:00,43.5,42.4,29.94,N/A,-737280,0.0,-999.0,96,0.00,,,0.00,0,Wunderground v.1.15,2013-10-10 13:05:00,
2013-10-10 06:06:00,43.5,43.0,29.94,NW,317,0.0,0.0,96,0.00,,,0.00,0,weatherlink.com 1.10,2013-10-10 13:06:00,
2013-10-10 06:10:00,43.5,42.4,29.95,N/A,-737280,0.0,-999.0,96,0.00,,,0.00,0,Wunderground v.1.15,2013-10-10 13:10:00,
2013-10-10 06:15:00,43.5,42.4,29.95,N/A,-737280,0.0,-999.0,96,0.00,,,0.00,0,Wunderground v.1.15,2013-10-10 13:15:00,
2013-10-10 06:20:00,43.5,42.4,29.95,N/A,-737280,0.0,-999.0,96,0.00,,,0.00,0,Wunderground v.1.15,2013-10-10 13:20:00,
2013-10-10 06:21:00,43.6,43.0,29.95,NW,317,0.0,0.0,96,0.00,,,0.00,0,weatherlink.com 1.10,2013-10-10 13:21:00,
2013-10-10 06:25:00,43.6,42.5,29.95,N/A,-737280,0.0,-999.0,96,0.00,,,0.00,0,Wunderground v.1.15,2013-10-10 13:25:00,
2013-10-10 06:30:00,43.6,42.5,29.95,N/A,-737280,0.0,-999.0,96,0.00,,,0.00,0,Wunderground v.1.15,2013-10-10 13:30:00,
2013-10-10 06:35:00,43.6,42.5,29.95,N/A,-737280,0.0,-999.0,96,0.00,,,0.00,0,Wunderground v.1.15,2013-10-10 13:35:00,
2013-10-10 06:36:00,43.7,43.0,29.95,NW,317,0.0,0.0,96,0.00,,,0.00,0,weatherlink.com 1.10,2013-10-10 13:36:00,
2013-10-10 06:40:00,43.7,42.6,29.95,N/A,-737280,0.0,-999.0,96,0.00,,,0.00,0,Wunderground v.1.15,2013-10-10 13:40:00,
2013-10-10 06:45:00,43.7,42.6,29.95,N/A,-737280,0.0,-999.0,96,0.00,,,0.00,0,Wunderground v.1.15,2013-10-10 13:45:00,
2013-10-10 06:50:00,43.7,42.6,29.95,N/A,-737280,0.0,-999.0,96,0.00,,,0.00,0,Wunderground v.1.15,2013-10-10 13:50:00,
2013-10-10 06:51:00,43.7,43.0,29.95,NW,317,0.0,0.0,96,0.00,,,0.00,0,weatherlink.com 1.10,2013-10-10 13:51:00,
2013-10-10 06:55:00,43.8,42.7,29.95,N/A,-737280,0.0,-999.0,96,0.00,,,0.00,0,Wunderground v.1.15,2013-10-10 13:55:00,
2013-10-10 07:00:00,43.8,42.7,29.95,N/A,-737280,0.0,-999.0,96,0.00,,,0.00,0,Wunderground v.1.15,2013-10-10 14:00:00,
2013-10-10 07:05:00,43.8,42.7,29.95,N/A,-737280,0.0,-999.0,96,0.00,,,0.00,0,Wunderground v.1.15,2013-10-10 14:05:00,
2013-10-10 07:06:00,44.0,43.0,29.95,NW,317,0.0,0.0,96,0.00,,,0.00,0,weatherlink.com 1.10,2013-10-10 14:06:00,
2013-10-10 07:10:00,44.0,42.9,29.95,N/A,-737280,0.0,-999.0,96,0.00,,,0.00,0,Wunderground v.1.15,2013-10-10 14:10:00,
2013-10-10 07:15:00,44.0,42.9,29.95,N/A,-737280,0.0,-999.0,96,0.00,,,0.00,0,Wunderground v.1.15,2013-10-10 14:15:00,
2013-10-10 07:20:00,44.0,42.9,29.95,N/A,-737280,0.0,-999.0,96,0.00,,,0.00,0,Wunderground v.1.15,2013-10-10 14:20:00,
2013-10-10 07:21:00,44.0,43.0,29.95,NW,317,0.0,0.0,96,0.00,,,0.00,0,weatherlink.com 1.10,2013-10-10 14:21:00,
2013-10-10 07:25:00,44.0,42.9,29.94,N/A,-737280,0.0,-999.0,96,0.00,,,0.00,1,Wunderground v.1.15,2013-10-10 14:25:00,
2013-10-10 07:30:00,44.0,42.9,29.94,N/A,-737280,0.0,-999.0,96,0.00,,,0.00,1,Wunderground v.1.15,2013-10-10 14:30:00,
2013-10-10 07:35:00,44.0,42.9,29.94,N/A,-737280,0.0,-999.0,96,0.00,,,0.00,1,Wunderground v.1.15,2013-10-10 14:35:00,
2013-10-10 07:36:00,44.1,43.0,29.94,NW,317,0.0,0.0,96,0.00,,,0.00,7,weatherlink.com 1.10,2013-10-10 14:36:00,
2013-10-10 07:40:00,44.1,43.0,29.95,N/A,-737280,0.0,-999.0,96,0.00,,,0.00,8,Wunderground v.1.15,2013-10-10 14:40:00,
2013-10-10 07:45:00,44.1,43.0,29.95,N/A,-737280,0.0,-999.0,96,0.00,,,0.00,8,Wunderground v.1.15,2013-10-10 14:45:00,
2013-10-10 07:50:00,44.1,43.0,29.95,N/A,-737280,0.0,-999.0,96,0.00,,,0.00,8,Wunderground v.1.15,2013-10-10 14:50:00,
2013-10-10 07:51:00,44.2,43.0,29.95,NW,317,0.0,0.0,96,0.00,,,0.00,16,weatherlink.com 1.10,2013-10-10 14:51:00,
2013-10-10 07:55:00,44.3,43.2,29.95,N/A,-737280,0.0,-999.0,96,0.00,,,0.00,18,Wunderground v.1.15,2013-10-10 14:55:00,
2013-10-10 08:00:00,44.3,43.2,29.95,N/A,-737280,0.0,-999.0,96,0.00,,,0.00,18,Wunderground v.1.15,2013-10-10 15:00:00,
2013-10-10 08:05:00,44.3,43.2,29.95,N/A,-737280,0.0,-999.0,96,0.00,,,0.00,18,Wunderground v.1.15,2013-10-10 15:05:00,
2013-10-10 08:06:00,44.4,43.0,29.95,NW,317,0.0,0.0,96,0.00,,,0.00,26,weatherlink.com 1.10,2013-10-10 15:06:00,
2013-10-10 08:10:00,44.4,43.3,29.95,N/A,-737280,0.0,-999.0,96,0.00,,,0.00,30,Wunderground v.1.15,2013-10-10 15:10:00,
2013-10-10 08:15:00,44.4,43.3,29.95,N/A,-737280,0.0,-999.0,96,0.00,,,0.00,30,Wunderground v.1.15,2013-10-10 15:15:00,
2013-10-10 08:20:00,44.4,43.3,29.95,N/A,-737280,0.0,-999.0,96,0.00,,,0.00,30,Wunderground v.1.15,2013-10-10 15:20:00,
2013-10-10 08:21:00,44.6,44.0,29.95,NW,317,0.0,0.0,96,0.00,,,0.00,44,weatherlink.com 1.10,2013-10-10 15:21:00,
2013-10-10 08:25:00,44.6,43.5,29.96,N/A,-737280,0.0,-999.0,96,0.00,,,0.00,51,Wunderground v.1.15,2013-10-10 15:25:00,
2013-10-10 08:30:00,44.6,43.5,29.96,N/A,-737280,0.0,-999.0,96,0.00,,,0.00,51,Wunderground v.1.15,2013-10-10 15:30:00,
2013-10-10 08:35:00,44.6,43.5,29.96,N/A,-737280,0.0,-999.0,96,0.00,,,0.00,51,Wunderground v.1.15,2013-10-10 15:35:00,
2013-10-10 08:36:00,44.8,44.0,29.96,NW,317,0.0,0.0,96,0.00,,,0.00,54,weatherlink.com 1.10,2013-10-10 15:36:00,
2013-10-10 08:40:00,44.9,43.8,29.96,N/A,-737280,0.0,-999.0,96,0.00,,,0.00,58,Wunderground v.1.15,2013-10-10 15:40:00,
2013-10-10 08:45:00,44.9,43.8,29.96,N/A,-737280,0.0,-999.0,96,0.00,,,0.00,58,Wunderground v.1.15,2013-10-10 15:45:00,
2013-10-10 08:50:00,44.9,43.8,29.96,N/A,-737280,0.0,-999.0,96,0.00,,,0.00,58,Wunderground v.1.15,2013-10-10 15:50:00,
2013-10-10 08:51:00,45.3,45.0,29.96,NW,317,0.0,0.0,97,0.00,,,0.00,70,weatherlink.com 1.10,2013-10-10 15:51:00,
2013-10-10 08:55:00,45.5,44.7,29.96,N/A,-737280,0.0,-999.0,97,0.00,,,0.00,76,Wunderground v.1.15,2013-10-10 15:55:00,
2013-10-10 09:00:00,45.5,44.7,29.96,N/A,-737280,0.0,-999.0,97,0.00,,,0.00,76,Wunderground v.1.15,2013-10-10 16:00:00,
2013-10-10 09:05:00,45.5,44.7,29.96,N/A,-737280,0.0,-999.0,97,0.00,,,0.00,76,Wunderground v.1.15,2013-10-10 16:05:00,
2013-10-10 09:06:00,45.9,45.0,29.96,NW,317,0.0,0.0,97,0.00,,,0.00,76,weatherlink.com 1.10,2013-10-10 16:06:00,
2013-10-10 09:10:00,45.9,44.8,29.96,N/A,-737280,0.0,-999.0,96,0.00,,,0.00,79,Wunderground v.1.15,2013-10-10 16:10:00,
2013-10-10 09:15:00,45.9,44.8,29.96,N/A,-737280,0.0,-999.0,96,0.00,,,0.00,79,Wunderground v.1.15,2013-10-10 16:15:00,
2013-10-10 09:20:00,45.9,44.8,29.96,N/A,-737280,0.0,-999.0,96,0.00,,,0.00,79,Wunderground v.1.15,2013-10-10 16:20:00,
2013-10-10 09:21:00,46.2,45.0,29.96,NW,317,0.0,0.0,96,0.00,,,0.00,91,weatherlink.com 1.10,2013-10-10 16:21:00,
2013-10-10 09:25:00,46.3,45.2,29.96,NW,315,0.0,-999.0,96,0.00,,,0.00,105,Wunderground v.1.15,2013-10-10 16:25:00,
2013-10-10 09:30:00,46.3,45.2,29.96,NW,315,0.0,-999.0,96,0.00,,,0.00,105,Wunderground v.1.15,2013-10-10 16:30:00,
2013-10-10 09:35:00,46.3,45.2,29.96,NW,315,0.0,-999.0,96,0.00,,,0.00,105,Wunderground v.1.15,2013-10-10 16:35:00,
2013-10-10 09:36:00,46.9,46.0,29.96,NW,317,0.0,0.0,96,0.00,,,0.00,253,weatherlink.com 1.10,2013-10-10 16:36:00,
2013-10-10 09:40:00,47.2,46.1,29.96,N/A,-737280,0.0,-999.0,96,0.00,,,0.00,208,Wunderground v.1.15,2013-10-10 16:40:00,
2013-10-10 09:45:00,47.2,46.1,29.96,N/A,-737280,0.0,-999.0,96,0.00,,,0.00,208,Wunderground v.1.15,2013-10-10 16:45:00,
2013-10-10 09:50:00,47.2,46.1,29.96,N/A,-737280,0.0,-999.0,96,0.00,,,0.00,208,Wunderground v.1.15,2013-10-10 16:50:00,
2013-10-10 09:51:00,48.3,47.0,29.96,NW,317,0.0,0.0,96,0.00,,,0.00,190,weatherlink.com 1.10,2013-10-10 16:51:00,
2013-10-10 09:55:00,48.7,46.8,29.97,SW,225,0.0,-999.0,93,0.00,,,0.00,186,Wunderground v.1.15,2013-10-10 16:55:00,
2013-10-10 10:00:00,48.7,46.8,29.97,SW,225,0.0,-999.0,93,0.00,,,0.00,186,Wunderground v.1.15,2013-10-10 17:00:00,
2013-10-10 10:05:00,48.7,46.8,29.97,SW,225,0.0,-999.0,93,0.00,,,0.00,186,Wunderground v.1.15,2013-10-10 17:05:00,
2013-10-10 10:06:00,49.9,48.0,29.97,SW,230,2.0,2.0,92,0.00,,,0.00,169,weatherlink.com 1.10,2013-10-10 17:06:00,
2013-10-10 10:10:00,50.0,47.2,29.97,SW,225,0.0,-999.0,90,0.00,,,0.00,172,Wunderground v.1.15,2013-10-10 17:10:00,
2013-10-10 10:15:00,50.0,47.2,29.97,SW,225,0.0,-999.0,90,0.00,,,0.00,172,Wunderground v.1.15,2013-10-10 17:15:00,
2013-10-10 10:20:00,50.0,47.2,29.97,SW,225,0.0,-999.0,90,0.00,,,0.00,172,Wunderground v.1.15,2013-10-10 17:20:00,
2013-10-10 10:25:00,50.8,46.8,29.97,SSE,158,0.0,-999.0,86,0.00,,,0.00,233,Wunderground v.1.15,2013-10-10 17:25:00,
2013-10-10 10:30:00,50.8,46.8,29.97,SSE,158,0.0,-999.0,86,0.00,,,0.00,233,Wunderground v.1.15,2013-10-10 17:30:00,
2013-10-10 10:35:00,50.8,46.8,29.97,SSE,158,0.0,-999.0,86,0.00,,,0.00,233,Wunderground v.1.15,2013-10-10 17:35:00,
2013-10-10 10:37:00,51.5,48.0,29.97,SE,135,0.0,3.0,86,0.00,,,0.00,207,weatherlink.com 1.10,2013-10-10 17:37:00,
2013-10-10 10:40:00,51.8,47.4,29.97,ESE,113,0.0,-999.0,85,0.00,,,0.00,204,Wunderground v.1.15,2013-10-10 17:40:00,
2013-10-10 10:45:00,51.8,47.4,29.97,ESE,113,0.0,-999.0,85,0.00,,,0.00,204,Wunderground v.1.15,2013-10-10 17:45:00,
2013-10-10 10:50:00,51.8,47.4,29.97,ESE,113,0.0,-999.0,85,0.00,,,0.00,204,Wunderground v.1.15,2013-10-10 17:50:00,
2013-10-10 10:52:00,52.3,48.0,29.97,SE,135,0.0,1.0,85,0.00,,,0.00,206,weatherlink.com 1.10,2013-10-10 17:52:00,
2013-10-10 10:55:00,52.4,48.0,29.98,SE,135,0.0,-999.0,85,0.00,,,0.00,207,Wunderground v.1.15,2013-10-10 17:55:00,
2013-10-10 11:00:00,52.4,48.0,29.98,SE,135,0.0,-999.0,85,0.00,,,0.00,207,Wunderground v.1.15,2013-10-10 18:00:00,
2013-10-10 11:05:00,52.4,48.0,29.98,SE,135,0.0,-999.0,85,0.00,,,0.00,207,Wunderground v.1.15,2013-10-10 18:05:00,
2013-10-10 11:07:00,52.6,48.0,29.98,West,261,0.0,2.0,84,0.00,,,0.00,253,weatherlink.com 1.10,2013-10-10 18:07:00,
2013-10-10 11:10:00,52.7,48.0,29.98,West,270,0.0,-999.0,84,0.00,,,0.00,257,Wunderground v.1.15,2013-10-10 18:10:00,
2013-10-10 11:15:00,52.7,48.0,29.98,West,270,0.0,-999.0,84,0.00,,,0.00,257,Wunderground v.1.15,2013-10-10 18:15:00,
2013-10-10 11:20:00,52.7,48.0,29.98,West,270,0.0,-999.0,84,0.00,,,0.00,257,Wunderground v.1.15,2013-10-10 18:20:00,
2013-10-10 11:22:00,53.1,48.0,29.98,ESE,109,0.0,3.0,82,0.00,,,0.00,299,weatherlink.com 1.10,2013-10-10 18:22:00,
2013-10-10 11:25:00,53.3,47.6,29.98,ESE,113,1.0,-999.0,81,0.00,,,0.00,347,Wunderground v.1.15,2013-10-10 18:25:00,
2013-10-10 11:30:00,53.3,47.6,29.98,ESE,113,1.0,-999.0,81,0.00,,,0.00,347,Wunderground v.1.15,2013-10-10 18:30:00,
2013-10-10 11:35:00,53.3,47.6,29.98,ESE,113,1.0,-999.0,81,0.00,,,0.00,347,Wunderground v.1.15,2013-10-10 18:35:00,
2013-10-10 11:37:00,54.1,48.0,29.98,SE,138,0.0,3.0,80,0.00,,,0.00,288,weatherlink.com 1.10,2013-10-10 18:37:00,
2013-10-10 11:40:00,54.1,48.4,29.98,ESE,113,1.0,-999.0,81,0.00,,,0.00,256,Wunderground v.1.15,2013-10-10 18:40:00,
2013-10-10 11:45:00,54.1,48.4,29.98,ESE,113,1.0,-999.0,81,0.00,,,0.00,256,Wunderground v.1.15,2013-10-10 18:45:00,
2013-10-10 11:50:00,54.1,48.4,29.98,ESE,113,1.0,-999.0,81,0.00,,,0.00,256,Wunderground v.1.15,2013-10-10 18:50:00,
2013-10-10 11:52:00,54.5,49.0,29.98,SE,128,0.0,1.0,81,0.00,,,0.00,557,weatherlink.com 1.10,2013-10-10 18:52:00,
2013-10-10 11:55:00,54.8,48.1,29.98,SE,135,0.0,-999.0,78,0.00,,,0.00,377,Wunderground v.1.15,2013-10-10 18:55:00,
2013-10-10 12:00:00,54.8,48.1,29.98,SE,135,0.0,-999.0,78,0.00,,,0.00,377,Wunderground v.1.15,2013-10-10 19:00:00,
2013-10-10 12:05:00,54.8,48.1,29.98,SE,135,0.0,-999.0,78,0.00,,,0.00,377,Wunderground v.1.15,2013-10-10 19:05:00,
2013-10-10 12:07:00,55.3,49.0,29.98,SE,132,0.0,4.0,78,0.00,,,0.00,267,weatherlink.com 1.10,2013-10-10 19:07:00,
2013-10-10 12:10:00,55.5,48.1,29.98,SE,135,0.0,-999.0,76,0.00,,,0.00,320,Wunderground v.1.15,2013-10-10 19:10:00,
2013-10-10 12:15:00,55.5,48.1,29.98,SE,135,0.0,-999.0,76,0.00,,,0.00,320,Wunderground v.1.15,2013-10-10 19:15:00,
2013-10-10 12:20:00,55.5,48.1,29.98,SE,135,0.0,-999.0,76,0.00,,,0.00,320,Wunderground v.1.15,2013-10-10 19:20:00,
2013-10-10 12:22:00,55.9,49.0,29.98,ESE,103,0.0,3.0,78,0.00,,,0.00,295,weatherlink.com 1.10,2013-10-10 19:22:00,
2013-10-10 12:25:00,56.0,48.9,29.98,ESE,113,1.0,-999.0,77,0.00,,,0.00,321,Wunderground v.1.15,2013-10-10 19:25:00,
2013-10-10 12:30:00,56.0,48.9,29.98,ESE,113,1.0,-999.0,77,0.00,,,0.00,321,Wunderground v.1.15,2013-10-10 19:30:00,
2013-10-10 12:35:00,56.0,48.9,29.98,ESE,113,1.0,-999.0,77,0.00,,,0.00,321,Wunderground v.1.15,2013-10-10 19:35:00,
2013-10-10 12:37:00,56.2,48.0,29.98,East,86,0.0,5.0,75,0.00,,,0.00,350,weatherlink.com 1.10,2013-10-10 19:37:00,
2013-10-10 12:40:00,56.3,48.5,29.98,ESE,113,1.0,-999.0,75,0.00,,,0.00,302,Wunderground v.1.15,2013-10-10 19:40:00,
2013-10-10 12:45:00,56.3,48.5,29.98,ESE,113,1.0,-999.0,75,0.00,,,0.00,302,Wunderground v.1.15,2013-10-10 19:45:00,
2013-10-10 12:50:00,56.3,48.5,29.98,ESE,113,1.0,-999.0,75,0.00,,,0.00,302,Wunderground v.1.15,2013-10-10 19:50:00,
2013-10-10 12:52:00,56.4,49.0,29.98,WSW,243,2.0,3.0,76,0.00,,,0.00,297,weatherlink.com 1.10,2013-10-10 19:52:00,
2013-10-10 12:55:00,56.3,49.2,29.98,WSW,248,1.0,-999.0,77,0.00,,,0.00,308,Wunderground v.1.15,2013-10-10 19:55:00,
2013-10-10 13:00:00,56.3,49.2,29.98,WSW,248,1.0,-999.0,77,0.00,,,0.00,308,Wunderground v.1.15,2013-10-10 20:00:00,
2013-10-10 13:05:00,56.3,49.2,29.98,WSW,248,1.0,-999.0,77,0.00,,,0.00,308,Wunderground v.1.15,2013-10-10 20:05:00,
2013-10-10 13:07:00,56.4,49.0,29.98,SE,141,2.0,3.0,76,0.00,,,0.00,301,weatherlink.com 1.10,2013-10-10 20:07:00,
2013-10-10 13:10:00,56.5,48.7,29.98,NNE,23,0.0,-999.0,75,0.00,,,0.00,269,Wunderground v.1.15,2013-10-10 20:10:00,
2013-10-10 13:15:00,56.5,48.7,29.98,NNE,23,0.0,-999.0,75,0.00,,,0.00,269,Wunderground v.1.15,2013-10-10 20:15:00,
2013-10-10 13:20:00,56.5,48.7,29.98,NNE,23,0.0,-999.0,75,0.00,,,0.00,269,Wunderground v.1.15,2013-10-10 20:20:00,
2013-10-10 13:22:00,56.6,49.0,29.98,NW,309,0.0,3.0,75,0.00,,,0.00,193,weatherlink.com 1.10,2013-10-10 20:22:00,
2013-10-10 13:25:00,56.5,49.0,29.98,NW,315,0.0,-999.0,76,0.00,,,0.00,182,Wunderground v.1.15,2013-10-10 20:25:00,
2013-10-10 13:30:00,56.5,49.0,29.98,NW,315,0.0,-999.0,76,0.00,,,0.00,182,Wunderground v.1.15,2013-10-10 20:30:00,
2013-10-10 13:35:00,56.5,49.0,29.98,NW,315,0.0,-999.0,76,0.00,,,0.00,182,Wunderground v.1.15,2013-10-10 20:35:00,
2013-10-10 13:37:00,56.3,48.0,29.98,NW,309,1.0,2.0,74,0.00,,,0.00,162,weatherlink.com 1.10,2013-10-10 20:37:00,
2013-10-10 13:40:00,56.3,49.5,29.98,NW,315,0.0,-999.0,78,0.00,,,0.00,174,Wunderground v.1.15,2013-10-10 20:40:00,
2013-10-10 13:45:00,56.3,49.5,29.98,NW,315,0.0,-999.0,78,0.00,,,0.00,174,Wunderground v.1.15,2013-10-10 20:45:00,
2013-10-10 13:50:00,56.3,49.5,29.98,NW,315,0.0,-999.0,78,0.00,,,0.00,174,Wunderground v.1.15,2013-10-10 20:50:00,
2013-10-10 13:52:00,55.9,49.0,29.98,NW,309,2.0,6.0,77,0.00,,,0.00,204,weatherlink.com 1.10,2013-10-10 20:52:00,
2013-10-10 13:55:00,55.6,49.9,29.98,NW,315,2.0,-999.0,81,0.00,,,0.00,235,Wunderground v.1.15,2013-10-10 20:55:00,
2013-10-10 14:00:00,55.6,49.9,29.98,NW,315,2.0,-999.0,81,0.00,,,0.00,235,Wunderground v.1.15,2013-10-10 21:00:00,
2013-10-10 14:05:00,55.6,49.9,29.98,NW,315,2.0,-999.0,81,0.00,,,0.00,235,Wunderground v.1.15,2013-10-10 21:05:00,
2013-10-10 14:07:00,55.2,49.0,29.98,NW,305,0.0,4.0,79,0.00,,,0.00,221,weatherlink.com 1.10,2013-10-10 21:07:00,
2013-10-10 14:10:00,55.3,48.6,29.98,NW,315,1.0,-999.0,78,0.00,,,0.00,220,Wunderground v.1.15,2013-10-10 21:10:00,
2013-10-10 14:15:00,55.3,48.6,29.98,NW,315,1.0,-999.0,78,0.00,,,0.00,220,Wunderground v.1.15,2013-10-10 21:15:00,
2013-10-10 14:20:00,55.3,48.6,29.98,NW,315,1.0,-999.0,78,0.00,,,0.00,220,Wunderground v.1.15,2013-10-10 21:20:00,
2013-10-10 14:22:00,55.3,49.0,29.98,NW,305,1.0,4.0,79,0.00,,,0.00,227,weatherlink.com 1.10,2013-10-10 21:22:00,
2013-10-10 14:25:00,55.4,50.0,29.98,NW,315,1.0,-999.0,82,0.00,,,0.00,242,Wunderground v.1.15,2013-10-10 21:25:00,
2013-10-10 14:30:00,55.4,50.0,29.98,NW,315,1.0,-999.0,82,0.00,,,0.00,242,Wunderground v.1.15,2013-10-10 21:30:00,
2013-10-10 14:35:00,55.4,50.0,29.98,NW,315,1.0,-999.0,82,0.00,,,0.00,242,Wunderground v.1.15,2013-10-10 21:35:00,
2013-10-10 14:37:00,55.9,50.0,29.98,NW,307,0.0,4.0,81,0.00,,,0.00,195,weatherlink.com 1.10,2013-10-10 21:37:00,
2013-10-10 14:40:00,55.9,49.8,29.98,NW,315,0.0,-999.0,80,0.00,,,0.00,209,Wunderground v.1.15,2013-10-10 21:40:00,
2013-10-10 14:45:00,55.9,49.8,29.98,NW,315,0.0,-999.0,80,0.00,,,0.00,209,Wunderground v.1.15,2013-10-10 21:45:00,
2013-10-10 14:50:00,55.9,49.8,29.98,NW,315,0.0,-999.0,80,0.00,,,0.00,209,Wunderground v.1.15,2013-10-10 21:50:00,
2013-10-10 14:52:00,56.0,50.0,29.98,WNW,295,2.0,3.0,81,0.00,,,0.00,199,weatherlink.com 1.10,2013-10-10 21:52:00,
2013-10-10 14:55:00,55.8,50.4,29.98,NW,315,2.0,-999.0,82,0.00,,,0.00,195,Wunderground v.1.15,2013-10-10 21:55:00,
2013-10-10 15:00:00,55.8,50.4,29.98,NW,315,2.0,-999.0,82,0.00,,,0.00,195,Wunderground v.1.15,2013-10-10 22:00:00,
2013-10-10 15:05:00,55.8,50.4,29.98,NW,315,2.0,-999.0,82,0.00,,,0.00,195,Wunderground v.1.15,2013-10-10 22:05:00,
2013-10-10 15:07:00,55.1,49.0,29.98,NW,314,0.0,4.0,81,0.00,,,0.00,204,weatherlink.com 1.10,2013-10-10 22:07:00,
2013-10-10 15:10:00,55.1,50.0,29.98,WNW,293,1.0,-999.0,83,0.00,,,0.00,212,Wunderground v.1.15,2013-10-10 22:10:00,
2013-10-10 15:15:00,55.1,50.0,29.98,WNW,293,1.0,-999.0,83,0.00,,,0.00,212,Wunderground v.1.15,2013-10-10 22:15:00,
2013-10-10 15:20:00,55.1,50.0,29.98,WNW,293,1.0,-999.0,83,0.00,,,0.00,212,Wunderground v.1.15,2013-10-10 22:20:00,
2013-10-10 15:22:00,55.3,50.0,29.98,WNW,303,3.0,4.0,81,0.00,,,0.00,211,weatherlink.com 1.10,2013-10-10 22:22:00,
2013-10-10 15:25:00,55.3,49.9,29.99,NW,315,1.0,-999.0,82,0.00,,,0.00,208,Wunderground v.1.15,2013-10-10 22:25:00,
2013-10-10 15:30:00,55.3,49.9,29.99,NW,315,1.0,-999.0,82,0.00,,,0.00,208,Wunderground v.1.15,2013-10-10 22:30:00,
2013-10-10 15:35:00,55.3,49.9,29.99,NW,315,1.0,-999.0,82,0.00,,,0.00,208,Wunderground v.1.15,2013-10-10 22:35:00,
2013-10-10 15:37:00,55.8,50.0,29.98,NW,304,0.0,2.0,82,0.00,,,0.00,199,weatherlink.com 1.10,2013-10-10 22:37:00,
2013-10-10 15:40:00,55.8,49.7,29.99,WNW,293,1.0,-999.0,80,0.00,,,0.00,199,Wunderground v.1.15,2013-10-10 22:40:00,
2013-10-10 15:45:00,55.8,49.7,29.99,WNW,293,1.0,-999.0,80,0.00,,,0.00,199,Wunderground v.1.15,2013-10-10 22:45:00,
2013-10-10 15:50:00,55.8,49.7,29.99,WNW,293,1.0,-999.0,80,0.00,,,0.00,199,Wunderground v.1.15,2013-10-10 22:50:00,
2013-10-10 15:52:00,55.7,50.0,29.98,WNW,303,0.0,3.0,80,0.00,,,0.00,158,weatherlink.com 1.10,2013-10-10 22:52:00,
2013-10-10 15:55:00,55.8,49.4,29.99,WNW,293,0.0,-999.0,79,0.00,,,0.00,154,Wunderground v.1.15,2013-10-10 22:55:00,
2013-10-10 16:00:00,55.8,49.4,29.99,WNW,293,0.0,-999.0,79,0.00,,,0.00,154,Wunderground v.1.15,2013-10-10 23:00:00,
2013-10-10 16:05:00,55.8,49.4,29.99,WNW,293,0.0,-999.0,79,0.00,,,0.00,154,Wunderground v.1.15,2013-10-10 23:05:00,
2013-10-10 16:07:00,55.9,49.0,29.98,NW,304,0.0,3.0,77,0.00,,,0.00,172,weatherlink.com 1.10,2013-10-10 23:07:00,
2013-10-10 16:10:00,56.0,49.9,29.99,NW,315,0.0,-999.0,80,0.00,,,0.00,157,Wunderground v.1.15,2013-10-10 23:10:00,
2013-10-10 16:15:00,56.0,49.9,29.99,NW,315,0.0,-999.0,80,0.00,,,0.00,157,Wunderground v.1.15,2013-10-10 23:15:00,
2013-10-10 16:20:00,56.0,49.9,29.99,NW,315,0.0,-999.0,80,0.00,,,0.00,157,Wunderground v.1.15,2013-10-10 23:20:00,
2013-10-10 16:22:00,56.0,50.0,29.99,NW,305,1.0,3.0,79,0.00,,,0.00,139,weatherlink.com 1.10,2013-10-10 23:22:00,
2013-10-10 16:25:00,56.0,49.6,29.99,NW,315,1.0,-999.0,79,0.00,,,0.00,123,Wunderground v.1.15,2013-10-10 23:25:00,
2013-10-10 16:30:00,56.0,49.6,29.99,NW,315,1.0,-999.0,79,0.00,,,0.00,123,Wunderground v.1.15,2013-10-10 23:30:00,
2013-10-10 16:35:00,56.0,49.6,29.99,NW,315,1.0,-999.0,79,0.00,,,0.00,123,Wunderground v.1.15,2013-10-10 23:35:00,
2013-10-10 16:37:00,55.8,49.0,29.99,NW,307,0.0,3.0,79,0.00,,,0.00,100,weatherlink.com 1.10,2013-10-10 23:37:00,
2013-10-10 16:40:00,55.8,49.7,29.99,WNW,293,1.0,-999.0,80,0.00,,,0.00,100,Wunderground v.1.15,2013-10-10 23:40:00,
2013-10-10 16:45:00,55.8,49.7,29.99,WNW,293,1.0,-999.0,80,0.00,,,0.00,100,Wunderground v.1.15,2013-10-10 23:45:00,
2013-10-10 16:50:00,55.8,49.7,29.99,WNW,293,1.0,-999.0,80,0.00,,,0.00,100,Wunderground v.1.15,2013-10-10 23:50:00,
2013-10-10 16:52:00,55.6,50.0,29.99,West,279,1.0,3.0,80,0.00,,,0.00,105,weatherlink.com 1.10,2013-10-10 23:52:00,
2013-10-10 16:55:00,55.5,49.1,29.99,NW,315,1.0,-999.0,79,0.00,,,0.00,101,Wunderground v.1.15,2013-10-10 23:55:00,
2013-10-10 17:00:00,55.5,49.1,29.99,NW,315,1.0,-999.0,79,0.00,,,0.00,101,Wunderground v.1.15,2013-10-11 00:00:00,
2013-10-10 17:05:00,55.5,49.1,29.99,NW,315,1.0,-999.0,79,0.00,,,0.00,101,Wunderground v.1.15,2013-10-11 00:05:00,
2013-10-10 17:07:00,55.4,49.0,29.99,NW,311,2.0,3.0,80,0.00,,,0.00,72,weatherlink.com 1.10,2013-10-11 00:07:00,
2013-10-10 17:10:00,55.3,49.6,29.99,NW,315,1.0,-999.0,81,0.00,,,0.00,69,Wunderground v.1.15,2013-10-11 00:10:00,
2013-10-10 17:15:00,55.3,49.6,29.99,NW,315,1.0,-999.0,81,0.00,,,0.00,69,Wunderground v.1.15,2013-10-11 00:15:00,
2013-10-10 17:20:00,55.3,49.6,29.99,NW,315,1.0,-999.0,81,0.00,,,0.00,69,Wunderground v.1.15,2013-10-11 00:20:00,
2013-10-10 17:22:00,54.8,49.0,29.99,WNW,295,3.0,5.0,81,0.00,,,0.00,53,weatherlink.com 1.10,2013-10-11 00:22:00,
2013-10-10 17:25:00,54.7,49.0,29.99,WNW,293,2.0,-999.0,81,0.00,,,0.00,50,Wunderground v.1.15,2013-10-11 00:25:00,
2013-10-10 17:30:00,54.7,49.0,29.99,WNW,293,2.0,-999.0,81,0.00,,,0.00,50,Wunderground v.1.15,2013-10-11 00:30:00,
2013-10-10 17:35:00,54.7,49.0,29.99,WNW,293,2.0,-999.0,81,0.00,,,0.00,50,Wunderground v.1.15,2013-10-11 00:35:00,
2013-10-10 17:37:00,54.3,49.0,29.99,WNW,298,3.0,4.0,81,0.00,,,0.00,39,weatherlink.com 1.10,2013-10-11 00:37:00,
2013-10-10 17:40:00,54.3,48.9,29.99,WNW,293,2.0,-999.0,82,0.00,,,0.00,36,Wunderground v.1.15,2013-10-11 00:40:00,
2013-10-10 17:45:00,54.3,48.9,29.99,WNW,293,2.0,-999.0,82,0.00,,,0.00,36,Wunderground v.1.15,2013-10-11 00:45:00,
2013-10-10 17:50:00,54.3,48.9,29.99,WNW,293,2.0,-999.0,82,0.00,,,0.00,36,Wunderground v.1.15,2013-10-11 00:50:00,
2013-10-10 17:52:00,53.9,49.0,29.99,WNW,292,3.0,4.0,83,0.00,,,0.00,26,weatherlink.com 1.10,2013-10-11 00:52:00,
2013-10-10 17:55:00,53.9,48.9,29.99,WNW,293,1.0,-999.0,83,0.00,,,0.00,23,Wunderground v.1.15,2013-10-11 00:55:00,
2013-10-10 18:00:00,53.9,48.9,29.99,WNW,293,1.0,-999.0,83,0.00,,,0.00,23,Wunderground v.1.15,2013-10-11 01:00:00,
2013-10-10 18:05:00,53.9,48.9,29.99,WNW,293,1.0,-999.0,83,0.00,,,0.00,23,Wunderground v.1.15,2013-10-11 01:05:00,
2013-10-10 18:07:00,53.6,49.0,29.99,WNW,300,1.0,3.0,83,0.00,,,0.00,12,weatherlink.com 1.10,2013-10-11 01:07:00,
2013-10-10 18:10:00,53.5,48.5,29.99,WNW,293,1.0,-999.0,83,0.00,,,0.00,12,Wunderground v.1.15,2013-10-11 01:10:00,
2013-10-10 18:15:00,53.5,48.5,29.99,WNW,293,1.0,-999.0,83,0.00,,,0.00,12,Wunderground v.1.15,2013-10-11 01:15:00,
2013-10-10 18:20:00,53.5,48.5,29.99,WNW,293,1.0,-999.0,83,0.00,,,0.00,12,Wunderground v.1.15,2013-10-11 01:20:00,
2013-10-10 18:22:00,53.1,48.0,29.99,WNW,294,1.0,4.0,84,0.00,,,0.00,5,weatherlink.com 1.10,2013-10-11 01:22:00,
2013-10-10 18:25:00,53.1,48.7,30.00,WNW,293,2.0,-999.0,85,0.00,,,0.00,2,Wunderground v.1.15,2013-10-11 01:25:00,
2013-10-10 18:30:00,53.1,48.7,30.00,WNW,293,2.0,-999.0,85,0.00,,,0.00,2,Wunderground v.1.15,2013-10-11 01:30:00,
2013-10-10 18:35:00,53.1,48.7,30.00,WNW,293,2.0,-999.0,85,0.00,,,0.00,2,Wunderground v.1.15,2013-10-11 01:35:00,
2013-10-10 18:37:00,52.7,48.0,30.00,WNW,300,1.0,3.0,85,0.00,,,0.00,0,weatherlink.com 1.10,2013-10-11 01:37:00,
2013-10-10 18:40:00,52.6,48.5,30.00,WNW,293,1.0,-999.0,86,0.00,,,0.00,0,Wunderground v.1.15,2013-10-11 01:40:00,
2013-10-10 18:45:00,52.6,48.5,30.00,WNW,293,1.0,-999.0,86,0.00,,,0.00,0,Wunderground v.1.15,2013-10-11 01:45:00,
2013-10-10 18:50:00,52.6,48.5,30.00,WNW,293,1.0,-999.0,86,0.00,,,0.00,0,Wunderground v.1.15,2013-10-11 01:50:00,
2013-10-10 18:52:00,52.3,49.0,30.00,WNW,294,2.0,3.0,87,0.00,,,0.00,0,weatherlink.com 1.10,2013-10-11 01:52:00,
2013-10-10 18:55:00,52.2,48.8,30.00,WNW,293,2.0,-999.0,88,0.00,,,0.00,0,Wunderground v.1.15,2013-10-11 01:55:00,
2013-10-10 19:00:00,52.2,48.8,30.00,WNW,293,2.0,-999.0,88,0.00,,,0.00,0,Wunderground v.1.15,2013-10-11 02:00:00,
2013-10-10 19:05:00,52.2,48.8,30.00,WNW,293,2.0,-999.0,88,0.00,,,0.00,0,Wunderground v.1.15,2013-10-11 02:05:00,
2013-10-10 19:07:00,51.9,49.0,30.00,NW,311,1.0,3.0,88,0.00,,,0.00,0,weatherlink.com 1.10,2013-10-11 02:07:00,
2013-10-10 19:10:00,51.9,48.8,30.00,NW,315,1.0,-999.0,89,0.00,,,0.00,0,Wunderground v.1.15,2013-10-11 02:10:00,
2013-10-10 19:15:00,51.9,48.8,30.00,NW,315,1.0,-999.0,89,0.00,,,0.00,0,Wunderground v.1.15,2013-10-11 02:15:00,
2013-10-10 19:20:00,51.9,48.8,30.00,NW,315,1.0,-999.0,89,0.00,,,0.00,0,Wunderground v.1.15,2013-10-11 02:20:00,
2013-10-10 19:22:00,51.8,49.0,30.00,WNW,295,0.0,3.0,89,0.00,,,0.00,0,weatherlink.com 1.10,2013-10-11 02:22:00,
2013-10-10 19:25:00,51.8,48.7,30.00,WNW,293,0.0,-999.0,89,0.00,,,0.00,0,Wunderground v.1.15,2013-10-11 02:25:00,
2013-10-10 19:30:00,51.8,48.7,30.00,WNW,293,0.0,-999.0,89,0.00,,,0.00,0,Wunderground v.1.15,2013-10-11 02:30:00,
2013-10-10 19:35:00,51.8,48.7,30.00,WNW,293,0.0,-999.0,89,0.00,,,0.00,0,Wunderground v.1.15,2013-10-11 02:35:00,
2013-10-10 19:37:00,51.7,49.0,30.00,WNW,295,0.0,1.0,89,0.00,,,0.00,0,weatherlink.com 1.10,2013-10-11 02:37:00,
2013-10-10 19:40:00,51.6,48.5,30.00,WNW,293,0.0,-999.0,89,0.00,,,0.00,0,Wunderground v.1.15,2013-10-11 02:40:00,
2013-10-10 19:45:00,51.6,48.5,30.00,WNW,293,0.0,-999.0,89,0.00,,,0.00,0,Wunderground v.1.15,2013-10-11 02:45:00,
2013-10-10 19:50:00,51.6,48.5,30.00,WNW,293,0.0,-999.0,89,0.00,,,0.00,0,Wunderground v.1.15,2013-10-11 02:50:00,
2013-10-10 19:52:00,51.2,48.0,30.00,WNW,295,0.0,0.0,90,0.00,,,0.00,0,weatherlink.com 1.10,2013-10-11 02:52:00,
2013-10-10 19:55:00,51.1,48.3,30.00,N/A,-737280,0.0,-999.0,90,0.00,,,0.00,0,Wunderground v.1.15,2013-10-11 02:55:00,
2013-10-10 20:00:00,51.1,48.3,30.00,N/A,-737280,0.0,-999.0,90,0.00,,,0.00,0,Wunderground v.1.15,2013-10-11 03:00:00,
2013-10-10 20:05:00,51.1,48.3,30.00,N/A,-737280,0.0,-999.0,90,0.00,,,0.00,0,Wunderground v.1.15,2013-10-11 03:05:00,
2013-10-10 20:07:00,50.8,48.0,30.00,WNW,295,0.0,0.0,91,0.00,,,0.00,0,weatherlink.com 1.10,2013-10-11 03:07:00,
2013-10-10 20:10:00,50.7,48.2,30.01,N/A,-737280,0.0,-999.0,91,0.00,,,0.00,0,Wunderground v.1.15,2013-10-11 03:10:00,
2013-10-10 20:15:00,50.7,48.2,30.01,N/A,-737280,0.0,-999.0,91,0.00,,,0.00,0,Wunderground v.1.15,2013-10-11 03:15:00,
2013-10-10 20:20:00,50.7,48.2,30.01,N/A,-737280,0.0,-999.0,91,0.00,,,0.00,0,Wunderground v.1.15,2013-10-11 03:20:00,
2013-10-10 20:22:00,50.4,48.0,30.01,WNW,295,0.0,0.0,91,0.00,,,0.00,0,weatherlink.com 1.10,2013-10-11 03:22:00,
2013-10-10 20:25:00,50.3,48.1,30.01,N/A,-737280,0.0,-999.0,92,0.00,,,0.00,0,Wunderground v.1.15,2013-10-11 03:25:00,
2013-10-10 20:30:00,50.3,48.1,30.01,N/A,-737280,0.0,-999.0,92,0.00,,,0.00,0,Wunderground v.1.15,2013-10-11 03:30:00,
2013-10-10 20:35:00,50.3,48.1,30.01,N/A,-737280,0.0,-999.0,92,0.00,,,0.00,0,Wunderground v.1.15,2013-10-11 03:35:00,
2013-10-10 20:37:00,50.0,48.0,30.01,WNW,295,0.0,0.0,92,0.00,,,0.00,0,weatherlink.com 1.10,2013-10-11 03:37:00,
2013-10-10 20:40:00,49.9,47.7,30.02,N/A,-737280,0.0,-999.0,92,0.00,,,0.00,0,Wunderground v.1.15,2013-10-11 03:40:00,
2013-10-10 20:45:00,49.9,47.7,30.02,N/A,-737280,0.0,-999.0,92,0.00,,,0.00,0,Wunderground v.1.15,2013-10-11 03:45:00,
2013-10-10 20:50:00,49.9,47.7,30.02,N/A,-737280,0.0,-999.0,92,0.00,,,0.00,0,Wunderground v.1.15,2013-10-11 03:50:00,
2013-10-10 20:52:00,49.6,47.0,30.02,WNW,295,0.0,0.0,92,0.00,,,0.00,0,weatherlink.com 1.10,2013-10-11 03:52:00,
2013-10-10 20:55:00,49.5,47.6,30.02,N/A,-737280,0.0,-999.0,93,0.00,,,0.00,0,Wunderground v.1.15,2013-10-11 03:55:00,
2013-10-10 21:00:00,49.5,47.6,30.02,N/A,-737280,0.0,-999.0,93,0.00,,,0.00,0,Wunderground v.1.15,2013-10-11 04:00:00,
2013-10-10 21:05:00,49.5,47.6,30.02,N/A,-737280,0.0,-999.0,93,0.00,,,0.00,0,Wunderground v.1.15,2013-10-11 04:05:00,
2013-10-10 21:07:00,49.2,47.0,30.02,WNW,295,0.0,0.0,93,0.00,,,0.00,0,weatherlink.com 1.10,2013-10-11 04:07:00,
2013-10-10 21:10:00,49.1,47.2,30.02,N/A,-737280,0.0,-999.0,93,0.00,,,0.00,0,Wunderground v.1.15,2013-10-11 04:10:00,
2013-10-10 21:15:00,49.1,47.2,30.02,N/A,-737280,0.0,-999.0,93,0.00,,,0.00,0,Wunderground v.1.15,2013-10-11 04:15:00,
2013-10-10 21:20:00,49.1,47.2,30.02,N/A,-737280,0.0,-999.0,93,0.00,,,0.00,0,Wunderground v.1.15,2013-10-11 04:20:00,
2013-10-10 21:22:00,48.8,47.0,30.02,WNW,295,0.0,0.0,93,0.00,,,0.00,0,weatherlink.com 1.10,2013-10-11 04:22:00,
2013-10-10 21:25:00,48.8,47.2,30.02,N/A,-737280,0.0,-999.0,94,0.00,,,0.00,0,Wunderground v.1.15,2013-10-11 04:25:00,
2013-10-10 21:30:00,48.8,47.2,30.02,N/A,-737280,0.0,-999.0,94,0.00,,,0.00,0,Wunderground v.1.15,2013-10-11 04:30:00,
2013-10-10 21:35:00,48.8,47.2,30.02,N/A,-737280,0.0,-999.0,94,0.00,,,0.00,0,Wunderground v.1.15,2013-10-11 04:35:00,
2013-10-10 21:37:00,48.3,47.0,30.02,WNW,295,0.0,0.0,94,0.00,,,0.00,0,weatherlink.com 1.10,2013-10-11 04:37:00,
2013-10-10 21:40:00,48.3,46.7,30.02,N/A,-737280,0.0,-999.0,94,0.00,,,0.00,0,Wunderground v.1.15,2013-10-11 04:40:00,
2013-10-10 21:45:00,48.3,46.7,30.02,N/A,-737280,0.0,-999.0,94,0.00,,,0.00,0,Wunderground v.1.15,2013-10-11 04:45:00,
2013-10-10 21:50:00,48.3,46.7,30.02,N/A,-737280,0.0,-999.0,94,0.00,,,0.00,0,Wunderground v.1.15,2013-10-11 04:50:00,
2013-10-10 21:52:00,47.9,46.0,30.02,WNW,295,0.0,0.0,94,0.00,,,0.00,0,weatherlink.com 1.10,2013-10-11 04:52:00,
2013-10-10 21:55:00,47.9,46.3,30.03,N/A,-737280,0.0,-999.0,94,0.00,,,0.00,0,Wunderground v.1.15,2013-10-11 04:55:00,
2013-10-10 22:00:00,47.9,46.3,30.03,N/A,-737280,0.0,-999.0,94,0.00,,,0.00,0,Wunderground v.1.15,2013-10-11 05:00:00,
2013-10-10 22:05:00,47.9,46.3,30.03,N/A,-737280,0.0,-999.0,94,0.00,,,0.00,0,Wunderground v.1.15,2013-10-11 05:05:00,
2013-10-10 22:07:00,47.6,46.0,30.03,WNW,295,0.0,0.0,94,0.00,,,0.00,0,weatherlink.com 1.10,2013-10-11 05:07:00,
2013-10-10 22:10:00,47.6,46.2,30.03,N/A,-737280,0.0,-999.0,95,0.00,,,0.00,0,Wunderground v.1.15,2013-10-11 05:10:00,
2013-10-10 22:15:00,47.6,46.2,30.03,N/A,-737280,0.0,-999.0,95,0.00,,,0.00,0,Wunderground v.1.15,2013-10-11 05:15:00,
2013-10-10 22:20:00,47.6,46.2,30.03,N/A,-737280,0.0,-999.0,95,0.00,,,0.00,0,Wunderground v.1.15,2013-10-11 05:20:00,
2013-10-10 22:22:00,47.4,46.0,30.03,WNW,295,0.0,0.0,95,0.00,,,0.00,0,weatherlink.com 1.10,2013-10-11 05:22:00,
2013-10-10 22:25:00,47.3,45.7,30.03,N/A,-737280,0.0,-999.0,94,0.00,,,0.00,0,Wunderground v.1.15,2013-10-11 05:25:00,
2013-10-10 22:30:00,47.3,45.7,30.03,N/A,-737280,0.0,-999.0,94,0.00,,,0.00,0,Wunderground v.1.15,2013-10-11 05:30:00,
2013-10-10 22:35:00,47.3,45.7,30.03,N/A,-737280,0.0,-999.0,94,0.00,,,0.00,0,Wunderground v.1.15,2013-10-11 05:35:00,
2013-10-10 22:37:00,47.1,46.0,30.04,WNW,295,0.0,0.0,95,0.00,,,0.00,0,weatherlink.com 1.10,2013-10-11 05:37:00,
2013-10-10 22:40:00,47.1,45.7,30.04,N/A,-737280,0.0,-999.0,95,0.00,,,0.00,0,Wunderground v.1.15,2013-10-11 05:40:00,
2013-10-10 22:45:00,47.1,45.7,30.04,N/A,-737280,0.0,-999.0,95,0.00,,,0.00,0,Wunderground v.1.15,2013-10-11 05:45:00,
2013-10-10 22:50:00,47.1,45.7,30.04,N/A,-737280,0.0,-999.0,95,0.00,,,0.00,0,Wunderground v.1.15,2013-10-11 05:50:00,
2013-10-10 22:52:00,47.0,46.0,30.04,WNW,295,0.0,0.0,95,0.00,,,0.00,0,weatherlink.com 1.10,2013-10-11 05:52:00,
2013-10-10 22:55:00,47.0,45.6,30.05,N/A,-737280,0.0,-999.0,95,0.00,,,0.00,0,Wunderground v.1.15,2013-10-11 05:55:00,
2013-10-10 23:00:00,47.0,45.6,30.05,N/A,-737280,0.0,-999.0,95,0.00,,,0.00,0,Wunderground v.1.15,2013-10-11 06:00:00,
2013-10-10 23:05:00,47.0,45.6,30.05,N/A,-737280,0.0,-999.0,95,0.00,,,0.00,0,Wunderground v.1.15,2013-10-11 06:05:00,
2013-10-10 23:07:00,47.0,46.0,30.05,WNW,295,0.0,0.0,95,0.00,,,0.00,0,weatherlink.com 1.10,2013-10-11 06:07:00,
2013-10-10 23:10:00,47.0,45.6,30.05,N/A,-737280,0.0,-999.0,95,0.00,,,0.00,0,Wunderground v.1.15,2013-10-11 06:10:00,
2013-10-10 23:15:00,47.0,45.6,30.05,N/A,-737280,0.0,-999.0,95,0.00,,,0.00,0,Wunderground v.1.15,2013-10-11 06:15:00,
2013-10-10 23:20:00,47.0,45.6,30.05,N/A,-737280,0.0,-999.0,95,0.00,,,0.00,0,Wunderground v.1.15,2013-10-11 06:20:00,
2013-10-10 23:22:00,46.8,46.0,30.05,WNW,295,0.0,0.0,95,0.00,,,0.00,0,weatherlink.com 1.10,2013-10-11 06:22:00,
2013-10-10 23:25:00,46.8,45.4,30.05,N/A,-737280,0.0,-999.0,95,0.00,,,0.00,0,Wunderground v.1.15,2013-10-11 06:25:00,
2013-10-10 23:30:00,46.8,45.4,30.05,N/A,-737280,0.0,-999.0,95,0.00,,,0.00,0,Wunderground v.1.15,2013-10-11 06:30:00,
2013-10-10 23:35:00,46.8,45.4,30.05,N/A,-737280,0.0,-999.0,95,0.00,,,0.00,0,Wunderground v.1.15,2013-10-11 06:35:00,
2013-10-10 23:37:00,46.6,45.0,30.05,WNW,295,0.0,0.0,95,0.00,,,0.00,0,weatherlink.com 1.10,2013-10-11 06:37:00,
2013-10-10 23:40:00,46.6,45.5,30.06,N/A,-737280,0.0,-999.0,96,0.00,,,0.00,0,Wunderground v.1.15,2013-10-11 06:40:00,
2013-10-10 23:45:00,46.6,45.5,30.06,N/A,-737280,0.0,-999.0,96,0.00,,,0.00,0,Wunderground v.1.15,2013-10-11 06:45:00,
2013-10-10 23:50:00,46.6,45.5,30.06,N/A,-737280,0.0,-999.0,96,0.00,,,0.00,0,Wunderground v.1.15,2013-10-11 06:50:00,
2013-10-10 23:52:00,46.7,46.0,30.06,WNW,295,0.0,0.0,96,0.00,,,0.00,0,weatherlink.com 1.10,2013-10-11 06:52:00,
2013-10-10 23:55:00,46.6,45.2,30.06,N/A,-737280,0.0,-999.0,95,0.00,,,0.00,0,Wunderground v.1.15,2013-10-11 06:55:00,